Detall de PIREP

Printer-friendly versionPDF version

[2017/04/02 07:41:00]
Flight IATA:CT3249
Pilot Number:012
Company ICAO:CAT
Aircraft Type:A320/E
PAX:150
Departing Airport: LOWW
Destination Airport: LEPA
Alternate Airport:LEBL
Online: VATSIM
Route:OSPEN TIBRO KOPER MIVKI TALEP UN850 BALEN UT250 RIXOT
Flight Level:F370
No Slew and time accel
No pause
Crash detect
Detect pilot in Cockpit between each 30 and 45 minutes
07:41 Zero fuel Weight: 120731 Lbs, Fuel Weight: 19321 Lbs
07:41 VATSIM:LOWW 020720Z 16004KT 120V200 CAVOK 15/06 Q1016 NOSIG
07:41 VATSIM:LEPA 020700Z 32012KT 290V350 9999 SCT030 15/07 Q1016 NOSIG
07:44 Parking Brakes off
07:51 Take-off
07:51 Take off Weight: 139104 Lbs
07:51 Wind: 155º @ 004 Knots Heading: 165º
07:51 POS N48º 06´ 05´´ E016º 35´ 08´´
07:51 Gear Up: 174 Knots
07:51 Flaps:3 at 174 Knots
07:51 Flaps:2 at 181 Knots
07:51 Flaps:0 at 188 Knots
08:06 Wind:172º@038 Knots Heading: 224º Ground Speed: 429 Knots Altitude 33635 ft
08:08 TOC
08:08 Fuel Weight: 14380 Lb
08:21 Wind:172º@015 Knots Heading: 229º Ground Speed: 439 Knots Altitude 37066 ft
08:36 Wind:181º@023 Knots Heading: 228º Ground Speed: 430 Knots Altitude 37020 ft
08:51 Wind:285º@013 Knots Heading: 233º Ground Speed: 439 Knots Altitude 37001 ft
09:06 Wind:335º@012 Knots Heading: 229º Ground Speed: 446 Knots Altitude 36932 ft
09:21 Wind:327º@069 Knots Heading: 235º Ground Speed: 450 Knots Altitude 37024 ft
09:23 TOD
09:23 Fuel Weight: 8047 Lb
09:36 Wind:310º@028 Knots Heading: 238º Ground Speed: 305 Knots Altitude 12175 ft
09:47 Flaps:1 at 197 Knots
09:47 Gear Down: 194 Knots
09:49 Flaps:3 at 190 Knots
09:50 Flaps:4 at 168 Knots
09:51 Wind:331º@012 Knots Heading: 242º Ground Speed: 165 Knots Altitude 2355 ft
09:51 Flaps:5 at 159 Knots
09:54 TouchDown:Rate -336 ft/min Speed: 129 Knots
09:54 VATSIM:LEPA 020930Z 32015KT 290V350 9999 SCT030 16/07 Q1017 NOSIG
09:54 Land
09:54 Wind:314º@015 Knots
09:54 Heading: 239º
09:54 Flight Duration: 02:03
09:54 Landing Weight: 126117 Lbs
09:54 POS N39º 32´ 56´´ E002º 44´ 52´´
09:57 Parking brakes on
09:57 Block to Block Duration: 02:13
09:57 Final Fuel: 5112 Lbls
09:57 Spent Fuel: 14208 Lbls
09:57 Flight Length: 800 NM
09:57 TOD Land Length: 144 NM

Exportar CSV

Powered by Drupal - Modified by Danger4k